Time;durP1;ratioP1;P1;durP2;ratioP2;P2;SDS_P1;SDS_P2;PMS_P1;PMS_P2;Temp;Humidity;BMP_temperature;BMP_pressure;BME280_temperature;BME280_humidity;BME280_pressure;Samples;Min_cycle;Max_cycle;Signal;HPM_P1;HPM_P2
2022/01/27 00:01:04;;;;;;;37.03;16.70;;;5.10;99.90;;;;;;4877683;29;20104;-83
2022/01/27 00:03:48;;;;;;;32.15;15.68;;;5.10;99.90;;;;;;4877570;29;20542;-83
2022/01/27 00:06:16;;;;;;;37.28;17.23;;;5.10;99.90;;;;;;4862240;29;20121;-84
2022/01/27 00:08:47;;;;;;;34.67;17.15;;;5.10;99.90;;;;;;4877698;29;20105;-84
2022/01/27 00:11:15;;;;;;;37.85;18.13;;;5.10;99.90;;;;;;4877034;29;20049;-83
2022/01/27 00:13:54;;;;;;;36.65;18.88;;;5.10;99.90;;;;;;4877513;29;20048;-81
2022/01/27 00:16:26;;;;;;;38.97;17.48;;;5.00;99.90;;;;;;4869873;29;20163;-84
2022/01/27 00:18:52;;;;;;;;;;;5.00;99.90;;;;;;4877867;29;20053;-81
2022/01/27 00:21:21;;;;;;;40.83;19.25;;;5.00;99.90;;;;;;4876961;29;19970;-85
2022/01/27 00:23:47;;;;;;;43.28;19.20;;;5.00;99.90;;;;;;4916905;29;20099;-82
2022/01/27 00:26:14;;;;;;;39.10;19.33;;;5.00;99.90;;;;;;4914570;29;20052;-76
2022/01/27 00:28:41;;;;;;;42.90;19.85;;;5.00;99.90;;;;;;4910474;29;20096;-82
2022/01/27 00:31:07;;;;;;;37.83;17.85;;;5.00;99.90;;;;;;4917009;29;20068;-83
2022/01/27 00:33:33;;;;;;;45.58;20.73;;;5.00;99.90;;;;;;4909493;29;20512;-82
2022/01/27 00:35:59;;;;;;;39.05;17.50;;;5.00;99.90;;;;;;4915740;29;20075;-83
2022/01/27 00:38:25;;;;;;;45.75;19.77;;;5.00;99.90;;;;;;4908884;29;20141;-83
2022/01/27 00:40:51;;;;;;;43.75;19.48;;;5.00;99.90;;;;;;4916209;29;20075;-82
2022/01/27 00:43:18;;;;;;;37.40;17.63;;;5.00;99.90;;;;;;4916752;29;20091;-82
2022/01/27 00:45:43;;;;;;;37.15;17.95;;;5.00;99.90;;;;;;4910926;29;20179;-82
2022/01/27 00:48:09;;;;;;;42.40;18.83;;;5.70;99.90;;;;;;4916691;29;20124;-82
2022/01/27 00:50:37;;;;;;;37.50;17.60;;;5.00;99.90;;;;;;4916641;29;20063;-83
2022/01/27 00:53:17;;;;;;;35.85;17.55;;;5.00;99.90;;;;;;4916708;29;20413;-79
2022/01/27 00:55:43;;;;;;;41.20;20.50;;;5.00;99.90;;;;;;4916670;29;20510;-79
2022/01/27 01:00:50;;;;;;;42.40;18.90;;;5.00;99.90;;;;;;4916558;29;20048;-80
2022/01/27 01:03:26;;;;;;;38.72;18.83;;;5.00;99.90;;;;;;4923055;29;20106;-82
2022/01/27 01:29:54;;;;;;;36.05;17.05;;;5.00;99.90;;;;;;4920818;29;20062;-75
2022/01/27 01:34:52;;;;;;;38.65;18.38;;;5.00;99.90;;;;;;4921483;29;20183;-74
2022/01/27 01:37:19;;;;;;;37.72;17.80;;;5.00;99.90;;;;;;4922758;29;20044;-76
2022/01/27 01:39:45;;;;;;;35.58;18.05;;;5.00;99.90;;;;;;4922756;29;20052;-80
2022/01/27 01:42:11;;;;;;;40.85;18.63;;;5.00;99.90;;;;;;4922286;29;20060;-73
2022/01/27 01:44:38;;;;;;;32.22;17.05;;;5.00;99.90;;;;;;4922108;29;20048;-72
2022/01/27 01:47:05;;;;;;;34.97;16.80;;;5.00;99.90;;;;;;4919149;29;20100;-73
2022/01/27 01:49:31;;;;;;;33.33;17.02;;;5.00;99.90;;;;;;4922615;29;20051;-74
2022/01/27 01:51:59;;;;;;;35.90;15.57;;;5.80;99.90;;;;;;4918378;29;20123;-76
2022/01/27 01:54:25;;;;;;;35.30;18.05;;;5.00;99.90;;;;;;4914226;29;20040;-72
2022/01/27 01:56:52;;;;;;;35.53;17.50;;;5.00;99.90;;;;;;4922678;29;20056;-72
2022/01/27 01:59:18;;;;;;;39.20;17.98;;;5.00;99.90;;;;;;4920929;29;20048;-71
2022/01/27 02:01:45;;;;;;;33.03;17.58;;;5.00;99.90;;;;;;4920790;29;20044;-73
2022/01/27 02:04:11;;;;;;;33.75;16.83;;;5.00;99.90;;;;;;4922293;29;20075;-73
2022/01/27 02:06:47;;;;;;;35.22;16.65;;;5.10;99.90;;;;;;4915780;29;20099;-73
2022/01/27 02:09:25;;;;;;;40.67;16.38;;;5.10;99.90;;;;;;4919220;29;20096;-75
2022/01/27 02:20:08;;;;;;;32.40;15.93;;;5.10;99.90;;;;;;4936767;29;20050;-72
2022/01/27 02:22:34;;;;;;;32.42;15.48;;;5.10;99.90;;;;;;4934795;29;20048;-72
2022/01/27 02:25:00;;;;;;;37.33;16.52;;;5.00;99.90;;;;;;4924710;29;20100;-72
2022/01/27 02:27:26;;;;;;;36.45;16.58;;;5.70;99.90;;;;;;4921057;29;20040;-72
2022/01/27 02:29:52;;;;;;;35.55;16.10;;;5.10;99.90;;;;;;4919272;29;20056;-73
2022/01/27 02:32:19;;;;;;;32.10;16.17;;;5.10;99.90;;;;;;4917550;29;20099;-72
2022/01/27 02:34:46;;;;;;;43.75;19.50;;;5.10;99.90;;;;;;4917382;29;20052;-73
2022/01/27 02:37:12;;;;;;;33.25;15.73;;;5.10;99.90;;;;;;4918801;29;20052;-72
2022/01/27 02:39:38;;;;;;;32.78;17.52;;;5.10;99.90;;;;;;4912454;29;20052;-73
2022/01/27 02:42:24;;;;;;;37.88;15.57;;;5.90;99.90;;;;;;4918470;29;20068;-72
2022/01/27 02:44:53;;;;;;;32.42;16.08;;;5.10;99.90;;;;;;4914113;29;20401;-73
2022/01/27 02:47:21;;;;;;;35.70;15.95;;;5.10;99.90;;;;;;4909587;29;20076;-73
2022/01/27 02:49:47;;;;;;;36.25;16.75;;;5.50;99.90;;;;;;4918445;29;20108;-70
2022/01/27 02:52:13;;;;;;;36.72;16.15;;;5.10;99.90;;;;;;4918698;29;20052;-72
2022/01/27 02:54:40;;;;;;;33.28;16.92;;;5.10;99.90;;;;;;4918656;29;20047;-72
2022/01/27 02:57:06;;;;;;;36.47;16.73;;;5.10;99.90;;;;;;4918393;29;20040;-73
2022/01/27 02:59:31;;;;;;;39.45;19.45;;;5.10;99.90;;;;;;4918694;29;20044;-72
2022/01/27 03:01:58;;;;;;;29.25;14.77;;;5.10;99.90;;;;;;4914419;29;20048;-71
2022/01/27 03:04:24;;;;;;;33.95;15.75;;;5.40;99.90;;;;;;4918267;29;20139;-75
2022/01/27 03:06:51;;;;;;;32.00;17.52;;;5.10;99.90;;;;;;4913526;29;20091;-73
2022/01/27 03:09:17;;;;;;;39.90;17.33;;;5.00;99.90;;;;;;4918581;29;20127;-70
2022/01/27 03:11:46;;;;;;;36.38;17.77;;;5.10;99.90;;;;;;4912367;29;20128;-71
2022/01/27 03:14:16;;;;;;;37.92;17.20;;;5.20;99.90;;;;;;4916885;29;20052;-70
2022/01/27 03:16:43;;;;;;;39.80;18.90;;;5.10;99.90;;;;;;4918405;29;20543;-71
2022/01/27 03:19:09;;;;;;;32.83;16.38;;;5.10;99.90;;;;;;4917885;29;20103;-76
2022/01/27 03:21:35;;;;;;;33.13;16.98;;;5.10;99.90;;;;;;4918211;29;20445;-79
2022/01/27 03:24:01;;;;;;;38.10;16.70;;;5.10;99.90;;;;;;4918408;29;20048;-81
2022/01/27 03:26:27;;;;;;;39.63;18.15;;;5.10;99.90;;;;;;4910176;29;20063;-81
2022/01/27 03:28:53;;;;;;;33.15;16.88;;;5.10;99.90;;;;;;4918557;29;20423;-76
2022/01/27 03:31:20;;;;;;;32.83;16.90;;;5.10;99.90;;;;;;4918007;29;20044;-81
2022/01/27 03:33:45;;;;;;;34.60;16.20;;;5.10;99.90;;;;;;4912418;29;20052;-81
2022/01/27 03:36:12;;;;;;;31.30;16.33;;;5.10;99.90;;;;;;4916032;29;20056;-71
2022/01/27 03:38:37;;;;;;;40.38;18.00;;;5.10;99.90;;;;;;4911848;29;20441;-82
2022/01/27 03:41:06;;;;;;;38.80;18.42;;;5.10;99.90;;;;;;4918398;29;20052;-81
2022/01/27 03:43:32;;;;;;;41.90;18.52;;;5.00;99.90;;;;;;4919963;29;20452;-81
2022/01/27 03:45:58;;;;;;;39.20;18.92;;;5.00;99.90;;;;;;4919840;29;20047;-81
2022/01/27 03:48:24;;;;;;;38.80;19.25;;;5.00;99.90;;;;;;4936534;29;20052;-80
2022/01/27 03:50:50;;;;;;;38.10;18.05;;;5.70;99.90;;;;;;4919204;29;20130;-81
2022/01/27 03:53:15;;;;;;;38.78;19.50;;;5.70;99.90;;;;;;4936543;29;20044;-82
2022/01/27 03:55:42;;;;;;;40.10;19.15;;;5.00;99.90;;;;;;4919549;29;20477;-82
2022/01/27 03:58:08;;;;;;;38.28;18.08;;;5.00;99.90;;;;;;4936307;29;20122;-72
2022/01/27 04:00:34;;;;;;;41.00;18.13;;;5.00;99.90;;;;;;4936542;29;20127;-80
2022/01/27 04:03:11;;;;;;;41.03;17.85;;;5.00;99.90;;;;;;4936333;29;20044;-82
2022/01/27 04:05:41;;;;;;;39.42;18.05;;;5.00;99.90;;;;;;4936120;29;20066;-74
2022/01/27 04:08:09;;;;;;;41.55;18.63;;;5.10;99.90;;;;;;4935581;29;20036;-72
2022/01/27 04:10:36;;;;;;;38.60;19.10;;;5.00;99.90;;;;;;4919071;29;20048;-81
2022/01/27 04:13:03;;;;;;;36.95;17.20;;;5.10;99.90;;;;;;4936076;29;20043;-83
2022/01/27 04:15:29;;;;;;;40.38;17.50;;;5.00;99.90;;;;;;4903607;29;20090;-71
2022/01/27 04:17:54;;;;;;;44.92;17.80;;;5.00;99.90;;;;;;4919091;29;20447;-82
2022/01/27 04:20:20;;;;;;;37.90;18.63;;;5.10;99.90;;;;;;4919174;29;20040;-83
2022/01/27 04:22:46;;;;;;;42.53;19.52;;;5.10;99.90;;;;;;4918841;29;20075;-84
2022/01/27 04:25:13;;;;;;;34.65;17.73;;;5.10;99.90;;;;;;4919098;29;20051;-71
2022/01/27 04:27:43;;;;;;;38.85;17.88;;;5.10;99.90;;;;;;4936152;29;20069;-84
2022/01/27 04:30:15;;;;;;;47.28;19.35;;;5.10;99.90;;;;;;4935827;29;20131;-83
2022/01/27 04:32:47;;;;;;;37.53;17.55;;;5.10;99.90;;;;;;4918465;29;20496;-85
2022/01/27 04:35:17;;;;;;;38.03;16.38;;;5.20;99.90;;;;;;4936178;29;20064;-83
2022/01/27 04:37:54;;;;;;;37.80;17.45;;;5.10;99.90;;;;;;4935867;29;20051;-86
2022/01/27 04:40:26;;;;;;;41.72;18.00;;;5.10;99.90;;;;;;4935461;29;20480;-81
2022/01/27 04:48:23;;;;;;;42.95;17.98;;;5.10;99.90;;;;;;4879794;29;20067;-71
2022/01/27 04:50:51;;;;;;;38.88;16.85;;;5.10;99.90;;;;;;4895934;29;20056;-73
2022/01/27 04:53:24;;;;;;;37.00;16.27;;;5.10;99.90;;;;;;4895761;29;20057;-74
2022/01/27 04:55:49;;;;;;;34.03;16.92;;;5.10;99.90;;;;;;4895176;29;20076;-85
2022/01/27 04:58:20;;;;;;;34.67;16.73;;;5.10;99.90;;;;;;4880179;29;20048;-84
2022/01/27 05:00:45;;;;;;;35.72;17.92;;;5.10;99.90;;;;;;4895605;29;20052;-70
2022/01/27 05:03:35;;;;;;;41.70;17.80;;;5.30;99.90;;;;;;4895657;29;20477;-72
2022/01/27 05:05:57;;;;;;;41.83;18.38;;;5.50;99.90;;;;;;4879374;29;20074;-71
2022/01/27 05:08:23;;;;;;;39.90;18.38;;;5.10;99.90;;;;;;4880069;29;20059;-71
2022/01/27 05:10:59;;;;;;;43.60;19.17;;;5.10;99.90;;;;;;4895201;29;20517;-74
2022/01/27 05:13:27;;;;;;;37.78;17.45;;;5.10;99.90;;;;;;4895324;29;20053;-74
2022/01/27 05:15:53;;;;;;;39.38;18.17;;;5.10;99.90;;;;;;4895289;29;20096;-72
2022/01/27 05:18:20;;;;;;;38.17;18.75;;;5.00;99.90;;;;;;4879999;29;20101;-73
2022/01/27 05:20:46;;;;;;;41.65;19.52;;;5.00;99.90;;;;;;4879849;29;20064;-72
2022/01/27 05:23:13;;;;;;;40.15;17.60;;;5.00;99.90;;;;;;4900957;29;20060;-72
2022/01/27 05:25:39;;;;;;;37.42;17.88;;;5.10;99.90;;;;;;4917898;29;20098;-73
2022/01/27 05:28:06;;;;;;;41.80;19.50;;;5.10;99.90;;;;;;4935524;29;20119;-74
2022/01/27 05:30:32;;;;;;;39.35;16.83;;;5.10;99.90;;;;;;4935063;29;20484;-74
2022/01/27 05:32:57;;;;;;;44.67;21.92;;;5.10;99.90;;;;;;4935037;29;20499;-73
2022/01/27 05:35:23;;;;;;;43.25;21.50;;;5.10;99.90;;;;;;4935462;29;20053;-74
2022/01/27 05:37:49;;;;;;;45.03;19.88;;;5.10;99.90;;;;;;4935290;29;20080;-73
2022/01/27 05:40:15;;;;;;;52.00;21.45;;;5.10;99.90;;;;;;4918308;29;20044;-74
2022/01/27 05:42:40;;;;;;;47.25;21.75;;;5.10;99.90;;;;;;4917339;29;20134;-70
2022/01/27 05:45:06;;;;;;;41.95;21.02;;;5.10;99.90;;;;;;4938501;29;20063;-70
2022/01/27 05:47:32;;;;;;;50.08;21.35;;;5.10;99.90;;;;;;4939038;29;20389;-72
2022/01/27 05:49:58;;;;;;;48.88;21.92;;;5.00;99.90;;;;;;4921985;29;20166;-72
2022/01/27 05:52:23;;;;;;;44.90;21.60;;;5.00;99.90;;;;;;4905561;29;20095;-71
2022/01/27 05:54:49;;;;;;;52.05;23.48;;;5.00;99.90;;;;;;4921858;29;20400;-74
2022/01/27 05:57:15;;;;;;;48.63;22.65;;;4.90;99.90;;;;;;4921147;29;20538;-72
2022/01/27 05:59:41;;;;;;;52.83;23.52;;;4.90;99.90;;;;;;4938717;29;20048;-72
2022/01/27 06:02:06;;;;;;;53.10;22.33;;;4.90;99.90;;;;;;4938319;29;20064;-73
2022/01/27 06:04:32;;;;;;;56.70;23.38;;;5.00;99.90;;;;;;4938389;29;20036;-73
2022/01/27 06:06:58;;;;;;;53.08;22.02;;;4.90;99.90;;;;;;4921165;29;20091;-72
2022/01/27 06:09:23;;;;;;;49.42;21.50;;;4.90;99.90;;;;;;4938626;29;20051;-71
2022/01/27 06:11:50;;;;;;;50.58;20.45;;;4.90;99.90;;;;;;4938697;29;20043;-71
2022/01/27 06:14:16;;;;;;;55.20;23.77;;;4.90;99.90;;;;;;4943649;29;20048;-74
2022/01/27 06:16:44;;;;;;;45.53;20.85;;;4.90;99.90;;;;;;4937504;28;20075;-73
2022/01/27 06:19:10;;;;;;;41.30;19.45;;;4.90;99.90;;;;;;4932585;29;20094;-72
2022/01/27 06:21:36;;;;;;;41.72;19.23;;;4.90;99.90;;;;;;4939618;29;20130;-72
2022/01/27 06:24:02;;;;;;;42.58;20.80;;;4.90;99.90;;;;;;4939393;29;20123;-72
2022/01/27 06:26:29;;;;;;;48.83;19.98;;;4.90;99.90;;;;;;4939016;29;20055;-74
2022/01/27 06:28:56;;;;;;;49.25;20.10;;;4.90;99.90;;;;;;4939049;29;20519;-71
2022/01/27 06:31:22;;;;;;;45.38;21.60;;;5.60;99.90;;;;;;4938266;29;20052;-76
2022/01/27 06:33:47;;;;;;;47.30;20.33;;;4.90;99.90;;;;;;4938134;29;20055;-72
2022/01/27 06:36:13;;;;;;;47.00;21.60;;;4.90;99.90;;;;;;4938079;29;20058;-73
2022/01/27 06:38:38;;;;;;;47.38;20.90;;;4.90;99.90;;;;;;4937871;29;20054;-74
2022/01/27 06:41:04;;;;;;;50.80;20.90;;;4.90;99.90;;;;;;4937697;29;20118;-72
2022/01/27 06:43:30;;;;;;;43.15;20.10;;;4.90;99.90;;;;;;4920962;29;20056;-74
2022/01/27 06:45:55;;;;;;;43.65;20.08;;;4.90;99.90;;;;;;4920200;29;20051;-72
2022/01/27 06:48:21;;;;;;;46.72;20.60;;;4.90;99.90;;;;;;4920888;29;20095;-76
2022/01/27 06:50:52;;;;;;;35.33;16.92;;;4.90;99.90;;;;;;4937826;29;20052;-71
2022/01/27 06:53:18;;;;;;;41.63;19.27;;;5.00;99.90;;;;;;4937676;29;20123;-71
2022/01/27 06:55:44;;;;;;;48.30;19.52;;;5.00;99.90;;;;;;4919898;29;20151;-73
2022/01/27 06:58:09;;;;;;;44.60;19.80;;;5.00;99.90;;;;;;4937481;29;20126;-74
2022/01/27 07:00:35;;;;;;;30.02;11.77;;;5.00;99.90;;;;;;4937100;29;20483;-71
2022/01/27 07:03:00;;;;;;;31.13;9.80;;;5.00;99.90;;;;;;4937609;29;20488;-73
2022/01/27 07:05:26;;;;;;;28.67;9.35;;;5.10;99.90;;;;;;4920123;29;20067;-73
2022/01/27 07:07:52;;;;;;;22.55;9.43;;;5.10;99.90;;;;;;4937087;29;20047;-74
2022/01/27 07:10:18;;;;;;;36.28;10.40;;;5.20;99.90;;;;;;4937606;29;20047;-73
2022/01/27 07:12:43;;;;;;;27.27;10.23;;;5.20;99.90;;;;;;4937332;29;20048;-71
2022/01/27 07:15:10;;;;;;;26.10;10.32;;;5.20;99.90;;;;;;4920080;29;20060;-73
2022/01/27 07:17:36;;;;;;;26.73;9.02;;;5.20;99.90;;;;;;4919703;29;20044;-71
2022/01/27 07:20:02;;;;;;;24.77;8.93;;;5.30;99.90;;;;;;4903919;29;20055;-71
2022/01/27 07:22:30;;;;;;;22.52;9.10;;;5.30;99.90;;;;;;4937677;29;20035;-80
2022/01/27 07:24:56;;;;;;;21.60;8.48;;;5.30;99.90;;;;;;4919999;29;20126;-85
2022/01/27 07:27:21;;;;;;;22.35;9.10;;;5.40;99.90;;;;;;4937341;29;20160;-81
2022/01/27 07:29:47;;;;;;;20.08;8.32;;;5.40;99.90;;;;;;4937293;29;20058;-88
2022/01/27 07:32:13;;;;;;;21.23;8.02;;;5.40;99.90;;;;;;4919442;29;20408;-84
2022/01/27 07:34:38;;;;;;;22.05;9.45;;;5.50;99.90;;;;;;4936711;29;20052;-89
2022/01/27 07:37:05;;;;;;;24.50;9.68;;;5.50;99.90;;;;;;4937060;29;20126;-83
2022/01/27 07:39:31;;;;;;;20.00;8.23;;;5.50;99.90;;;;;;4919888;29;20083;-86
2022/01/27 07:42:00;;;;;;;21.15;8.45;;;5.50;99.90;;;;;;4937620;29;20086;-88
2022/01/27 07:44:26;;;;;;;22.05;9.40;;;5.50;99.90;;;;;;4953907;29;20086;-87
2022/01/27 07:46:52;;;;;;;16.67;8.00;;;5.50;99.90;;;;;;4938607;29;20043;-85
2022/01/27 07:49:17;;;;;;;19.05;7.95;;;5.70;99.90;;;;;;4937292;29;20515;-85
2022/01/27 07:51:43;;;;;;;26.48;12.05;;;5.60;99.90;;;;;;4937541;29;20055;-78
2022/01/27 07:54:09;;;;;;;24.23;9.00;;;5.60;99.90;;;;;;4954640;29;20474;-76
2022/01/27 07:56:35;;;;;;;21.88;8.02;;;5.70;99.90;;;;;;4937428;29;20039;-75
2022/01/27 07:59:00;;;;;;;22.48;8.57;;;5.70;99.90;;;;;;4954858;29;20063;-80
2022/01/27 08:01:26;;;;;;;17.30;7.40;;;6.00;99.90;;;;;;4954284;29;20130;-83
2022/01/27 08:03:52;;;;;;;20.20;6.68;;;5.80;99.90;;;;;;4944683;29;20038;-79
2022/01/27 08:06:21;;;;;;;17.75;7.07;;;5.70;99.90;;;;;;4945219;29;20521;-73
2022/01/27 08:08:48;;;;;;;17.95;6.97;;;6.10;99.90;;;;;;4944260;29;20059;-74
2022/01/27 08:11:14;;;;;;;20.70;7.15;;;5.90;99.90;;;;;;4925350;29;20117;-73
2022/01/27 08:13:40;;;;;;;15.30;6.60;;;5.00;99.90;;;;;;4943606;29;20048;-74
2022/01/27 08:16:12;;;;;;;20.88;7.50;;;5.80;99.90;;;;;;4942458;29;20047;-76
2022/01/27 08:18:37;;;;;;;16.42;6.72;;;5.80;99.90;;;;;;4934520;29;20054;-79
2022/01/27 08:21:03;;;;;;;16.95;5.70;;;5.80;99.90;;;;;;4940602;29;20557;-76
2022/01/27 08:23:29;;;;;;;15.25;5.13;;;6.20;99.90;;;;;;4926992;29;20039;-77
2022/01/27 08:26:07;;;;;;;10.73;4.00;;;5.90;99.90;;;;;;4925287;29;20094;-77
2022/01/27 08:28:53;;;;;;;13.18;5.13;;;5.90;99.90;;;;;;4917991;29;20082;-76
2022/01/27 08:31:19;;;;;;;18.50;5.65;;;6.10;99.90;;;;;;4934588;29;20043;-77
2022/01/27 08:33:45;;;;;;;14.48;6.22;;;5.90;99.90;;;;;;4917654;29;20520;-77
2022/01/27 08:36:10;;;;;;;17.02;6.53;;;6.00;99.90;;;;;;4901126;29;20056;-78
2022/01/27 08:38:41;;;;;;;15.38;6.65;;;6.00;99.90;;;;;;4934874;29;20047;-77
2022/01/27 08:41:06;;;;;;;22.80;6.78;;;6.20;99.90;;;;;;4934598;29;20065;-75
2022/01/27 08:43:32;;;;;;;17.45;6.80;;;6.10;99.90;;;;;;4927443;29;20416;-74
2022/01/27 08:46:00;;;;;;;20.13;7.65;;;6.20;99.90;;;;;;4917809;29;20150;-76
2022/01/27 08:48:27;;;;;;;18.02;7.10;;;6.30;99.90;;;;;;4934364;29;20091;-76
2022/01/27 08:50:59;;;;;;;19.73;7.50;;;6.30;99.90;;;;;;4934582;29;20106;-77
2022/01/27 08:53:26;;;;;;;21.02;6.93;;;6.40;99.90;;;;;;4934296;29;20088;-77
2022/01/27 08:55:52;;;;;;;31.60;6.88;;;6.40;99.90;;;;;;4934717;29;20043;-78
2022/01/27 08:58:20;;;;;;;16.35;6.30;;;6.50;99.90;;;;;;4934235;29;20404;-74
2022/01/27 09:00:46;;;;;;;20.65;6.97;;;6.60;99.90;;;;;;4945010;29;20109;-73
2022/01/27 09:03:12;;;;;;;21.55;5.90;;;7.10;99.90;;;;;;4948849;29;20047;-73
2022/01/27 09:05:37;;;;;;;15.57;5.07;;;6.70;99.90;;;;;;4935107;29;20123;-75
2022/01/27 09:08:03;;;;;;;16.67;4.03;;;6.70;99.90;;;;;;4933917;29;20522;-74
2022/01/27 09:10:32;;;;;;;12.18;4.90;;;6.70;99.90;;;;;;4916977;29;20048;-73
2022/01/27 09:13:01;;;;;;;17.30;4.38;;;6.80;99.90;;;;;;4934324;29;20507;-76
2022/01/27 09:15:28;;;;;;;14.60;5.35;;;6.80;99.90;;;;;;4934471;29;20044;-78
2022/01/27 09:17:56;;;;;;;21.25;5.03;;;6.80;99.90;;;;;;4937734;29;20071;-78
2022/01/27 09:20:28;;;;;;;20.17;5.45;;;6.80;99.90;;;;;;4946682;29;20054;-77
2022/01/27 09:22:56;;;;;;;;;;;7.90;99.90;;;;;;4947149;29;20499;-77
2022/01/27 09:25:29;;;;;;;19.35;4.97;;;7.20;99.90;;;;;;4945378;29;19923;-76
2022/01/27 09:27:56;;;;;;;;;;;6.90;99.90;;;;;;4947806;29;20050;-76
2022/01/27 09:30:22;;;;;;;12.30;4.38;;;6.90;99.90;;;;;;4948750;29;19922;-86
2022/01/27 09:32:47;;;;;;;15.20;4.15;;;7.00;99.90;;;;;;4929165;29;20074;-78
2022/01/27 09:35:14;;;;;;;12.00;3.38;;;7.00;99.90;;;;;;4912516;29;20063;-77
2022/01/27 09:37:40;;;;;;;14.55;4.72;;;7.00;99.90;;;;;;4946980;29;20114;-75
2022/01/27 09:40:07;;;;;;;11.82;3.92;;;7.00;99.90;;;;;;4945644;29;20135;-78
2022/01/27 09:42:35;;;;;;;17.10;3.92;;;7.10;99.90;;;;;;4945296;29;20063;-78
2022/01/27 09:45:04;;;;;;;16.55;3.55;;;7.10;99.90;;;;;;4947075;29;20047;-78
2022/01/27 09:47:33;;;;;;;15.90;3.35;;;7.10;99.90;;;;;;4945912;29;20440;-76
2022/01/27 09:52:40;;;;;;;12.23;3.60;;;7.20;99.90;;;;;;4942657;29;20047;-74
2022/01/27 09:55:07;;;;;;;9.77;3.58;;;7.30;99.90;;;;;;4924952;29;20058;-76
2022/01/27 09:57:33;;;;;;;20.83;3.58;;;7.30;99.90;;;;;;4970371;29;20045;-78
2022/01/27 09:59:58;;;;;;;11.93;3.05;;;7.30;99.90;;;;;;4970567;28;20054;-75
2022/01/27 10:02:30;;;;;;;21.58;3.78;;;7.40;99.90;;;;;;4967120;29;20043;-77
2022/01/27 10:04:57;;;;;;;10.20;2.85;;;7.30;99.90;;;;;;4963564;29;20043;-75
2022/01/27 10:07:38;;;;;;;11.10;2.70;;;8.30;99.90;;;;;;4920682;29;20050;-78
2022/01/27 10:10:36;;;;;;;12.50;3.42;;;7.40;99.90;;;;;;4952000;29;20055;-74
2022/01/27 10:13:04;;;;;;;10.35;2.53;;;8.30;99.90;;;;;;4844583;29;20101;-77
2022/01/27 10:15:36;;;;;;;7.60;2.95;;;7.90;99.90;;;;;;4852059;29;20574;-77
2022/01/27 10:18:26;;;;;;;6.70;2.70;;;7.60;99.90;;;;;;4850049;29;20054;-83
2022/01/27 10:21:06;;;;;;;12.85;3.28;;;7.60;99.90;;;;;;4857312;29;20561;-80
2022/01/27 10:23:40;;;;;;;11.50;2.92;;;7.70;99.90;;;;;;4850122;29;20129;-82
2022/01/27 10:26:15;;;;;;;7.07;2.83;;;7.70;99.90;;;;;;4845999;29;20462;-82
2022/01/27 10:28:51;;;;;;;13.75;2.50;;;7.70;99.90;;;;;;4845771;29;20054;-84
2022/01/27 10:31:23;;;;;;;7.88;2.78;;;7.80;99.90;;;;;;4848493;29;20510;-85
2022/01/27 10:34:06;;;;;;;15.48;4.15;;;7.80;99.90;;;;;;4853364;29;20057;-85
2022/01/27 10:36:44;;;;;;;13.45;3.45;;;7.80;99.90;;;;;;4841145;29;20053;-86
2022/01/27 10:39:10;;;;;;;11.90;4.07;;;7.80;99.90;;;;;;4848072;29;20499;-81
2022/01/27 10:41:56;;;;;;;18.92;3.78;;;7.80;99.90;;;;;;4840702;29;20084;-85
2022/01/27 10:44:23;;;;;;;12.20;3.33;;;7.90;99.90;;;;;;4841002;29;20086;-87
2022/01/27 10:47:05;;;;;;;11.80;4.30;;;7.90;99.90;;;;;;4841089;29;20087;-80
2022/01/27 10:49:34;;;;;;;11.33;3.03;;;8.00;99.90;;;;;;4894417;29;20526;-87
2022/01/27 10:52:00;;;;;;;14.48;3.83;;;8.40;99.90;;;;;;4937810;29;20039;-80
2022/01/27 10:54:40;;;;;;;9.57;3.28;;;8.20;99.90;;;;;;4919501;29;20127;-78
2022/01/27 10:57:08;;;;;;;13.02;2.65;;;8.10;99.90;;;;;;4936112;29;20047;-79
2022/01/27 10:59:34;;;;;;;13.30;3.83;;;8.40;99.90;;;;;;4919424;29;20135;-79
2022/01/27 11:02:12;;;;;;;11.70;3.28;;;8.10;99.90;;;;;;4936291;29;20051;-79
2022/01/27 11:04:43;;;;;;;13.73;3.65;;;8.20;99.90;;;;;;4936506;29;20106;-76
2022/01/27 11:07:14;;;;;;;12.95;3.17;;;8.10;99.90;;;;;;4936348;29;20067;-76
2022/01/27 11:09:43;;;;;;;10.90;3.10;;;8.10;99.90;;;;;;4936967;29;20067;-82
2022/01/27 11:12:17;;;;;;;15.50;3.22;;;8.10;99.90;;;;;;4936722;29;20091;-77
2022/01/27 11:14:44;;;;;;;14.57;2.65;;;8.10;99.90;;;;;;4936761;29;20492;-78
2022/01/27 11:17:16;;;;;;;12.73;3.90;;;8.10;99.90;;;;;;4937294;29;20108;-85
2022/01/27 11:27:32;;;;;;;11.55;2.25;;;8.20;99.90;;;;;;4954765;29;20118;-76
2022/01/27 11:30:13;;;;;;;9.00;2.38;;;8.60;99.90;;;;;;4955581;29;20047;-81
2022/01/27 11:32:45;;;;;;;12.80;2.80;;;8.20;99.90;;;;;;4955080;29;20455;-82
2022/01/27 11:35:23;;;;;;;5.78;1.65;;;8.30;99.90;;;;;;4955126;29;20571;-76
2022/01/27 11:37:54;;;;;;;11.50;2.25;;;8.20;99.90;;;;;;4955021;29;20078;-78
2022/01/27 11:40:23;;;;;;;8.10;2.60;;;8.20;99.90;;;;;;4955353;28;20054;-76
2022/01/27 11:42:54;;;;;;;7.10;1.42;;;8.70;99.90;;;;;;4934966;29;20123;-78
2022/01/27 11:45:23;;;;;;;11.60;2.65;;;8.40;99.90;;;;;;4935187;29;20063;-77
2022/01/27 11:47:49;;;;;;;15.82;2.47;;;8.80;99.90;;;;;;4927849;29;20143;-78
2022/01/27 11:50:31;;;;;;;11.90;2.13;;;8.40;99.90;;;;;;4926938;29;20047;-77
2022/01/27 11:52:57;;;;;;;9.15;1.80;;;8.40;99.90;;;;;;4924380;29;20044;-79
2022/01/27 11:55:26;;;;;;;4.45;1.20;;;8.50;99.90;;;;;;4924489;29;20461;-77
2022/01/27 11:58:13;;;;;;;12.35;1.95;;;8.50;99.90;;;;;;4916643;29;20074;-76
2022/01/27 12:00:39;;;;;;;9.30;2.25;;;8.50;99.90;;;;;;4933646;29;20060;-76
2022/01/27 12:03:15;;;;;;;10.93;1.80;;;8.50;99.90;;;;;;4913679;29;20048;-78
2022/01/27 12:06:02;;;;;;;9.77;1.75;;;8.90;99.90;;;;;;4918747;29;20085;-76
2022/01/27 12:08:28;;;;;;;8.98;2.03;;;8.50;99.90;;;;;;4916309;29;20052;-76
2022/01/27 12:10:58;;;;;;;11.63;2.92;;;8.50;99.90;;;;;;4916771;29;20046;-75
2022/01/27 12:13:39;;;;;;;8.80;1.45;;;8.60;99.90;;;;;;4916116;29;20142;-77
2022/01/27 12:16:25;;;;;;;19.23;2.97;;;8.60;99.90;;;;;;4915897;29;20056;-76
2022/01/27 12:19:02;;;;;;;9.00;2.28;;;8.70;99.90;;;;;;4916339;29;20051;-76
2022/01/27 12:21:28;;;;;;;16.20;2.50;;;8.70;99.90;;;;;;4896141;29;20048;-76
2022/01/27 12:24:12;;;;;;;12.73;2.28;;;8.70;99.90;;;;;;4913141;29;20056;-75
2022/01/27 12:26:58;;;;;;;13.15;2.42;;;8.70;99.90;;;;;;4927164;29;20048;-77
2022/01/27 12:29:42;;;;;;;9.98;2.17;;;8.70;99.90;;;;;;4924822;29;20107;-77
2022/01/27 12:32:21;;;;;;;16.35;2.35;;;8.70;99.90;;;;;;4920708;29;20086;-76
2022/01/27 12:34:48;;;;;;;17.95;2.90;;;8.70;99.90;;;;;;4925767;29;20500;-78
2022/01/27 12:37:18;;;;;;;14.55;2.40;;;8.70;99.90;;;;;;4922608;29;20052;-75
2022/01/27 12:39:58;;;;;;;9.98;2.28;;;9.20;99.90;;;;;;4926011;29;20063;-78
2022/01/27 12:42:31;;;;;;;12.95;1.38;;;9.20;99.90;;;;;;4900181;29;20543;-76
2022/01/27 12:44:59;;;;;;;12.73;2.53;;;9.00;99.90;;;;;;4922449;29;20040;-74
2022/01/27 12:47:26;;;;;;;11.10;2.78;;;8.70;99.90;;;;;;4915138;29;20411;-76
2022/01/27 12:50:06;;;;;;;12.20;1.55;;;8.70;99.90;;;;;;4915857;29;20091;-77
2022/01/27 12:52:38;;;;;;;10.88;1.55;;;8.60;99.90;;;;;;4915431;29;20052;-74
2022/01/27 12:55:05;;;;;;;4.70;1.05;;;8.60;99.90;;;;;;4930671;29;20055;-77
2022/01/27 12:57:32;;;;;;;5.47;1.20;;;8.60;99.90;;;;;;4926597;29;20039;-77
2022/01/27 13:00:04;;;;;;;8.27;2.13;;;8.50;99.90;;;;;;4933680;29;20619;-76
2022/01/27 13:02:31;;;;;;;11.30;1.90;;;8.50;99.90;;;;;;4925493;29;20122;-76
2022/01/27 13:04:59;;;;;;;10.30;1.88;;;8.40;99.90;;;;;;4933377;29;20058;-76
2022/01/27 13:07:26;;;;;;;15.05;1.92;;;8.40;99.90;;;;;;4918635;29;20136;-75
2022/01/27 13:10:00;;;;;;;10.90;1.92;;;8.40;99.90;;;;;;4934604;29;20048;-76
2022/01/27 13:12:31;;;;;;;12.23;2.08;;;8.30;99.90;;;;;;4934081;29;20400;-76
2022/01/27 13:15:13;;;;;;;7.00;1.42;;;8.30;99.90;;;;;;4934521;29;20562;-76
2022/01/27 13:17:56;;;;;;;9.50;1.58;;;8.30;99.90;;;;;;4934330;29;20443;-78
2022/01/27 13:20:42;;;;;;;11.05;2.35;;;8.30;99.90;;;;;;4891166;29;20048;-78
2022/01/27 13:25:44;;;;;;;15.50;1.90;;;8.40;99.90;;;;;;4928202;29;20168;-77
2022/01/27 13:28:15;;;;;;;12.00;2.25;;;8.50;99.90;;;;;;4933517;29;20044;-78
2022/01/27 13:30:42;;;;;;;10.57;1.63;;;8.50;99.90;;;;;;4915440;29;20058;-78
2022/01/27 13:33:13;;;;;;;11.43;1.67;;;8.50;99.90;;;;;;4912340;29;20190;-77
2022/01/27 13:35:39;;;;;;;11.57;1.67;;;8.60;99.90;;;;;;4915267;29;20055;-78
2022/01/27 13:38:18;;;;;;;11.20;1.90;;;8.60;99.90;;;;;;4915274;29;20412;-78
2022/01/27 13:43:37;;;;;;;14.57;1.73;;;8.60;99.90;;;;;;4927097;29;20417;-77
2022/01/27 13:46:03;;;;;;;10.15;2.05;;;8.60;99.90;;;;;;4934262;29;20154;-77
2022/01/27 13:48:29;;;;;;;5.97;1.13;;;9.00;99.90;;;;;;4935999;29;20459;-79
2022/01/27 13:50:59;;;;;;;8.57;1.50;;;8.90;99.90;;;;;;4952938;29;20043;-78